sensor_id;sensor_type;location;lat;lon;timestamp;temperature;humidity
77100;SHT31;66602;48.922;2.414;2023-08-17T00:00:09;20.12;79.78
77100;SHT31;66602;48.922;2.414;2023-08-17T00:02:38;20.08;79.77
77100;SHT31;66602;48.922;2.414;2023-08-17T00:05:04;20.06;80.12
77100;SHT31;66602;48.922;2.414;2023-08-17T00:07:32;20.05;80.13
77100;SHT31;66602;48.922;2.414;2023-08-17T00:09:57;20.04;80.35
77100;SHT31;66602;48.922;2.414;2023-08-17T00:12:23;19.99;80.50
77100;SHT31;66602;48.922;2.414;2023-08-17T00:14:48;19.98;80.56
77100;SHT31;66602;48.922;2.414;2023-08-17T00:17:14;19.92;80.53
77100;SHT31;66602;48.922;2.414;2023-08-17T00:19:39;19.89;80.86
77100;SHT31;66602;48.922;2.414;2023-08-17T00:22:05;19.84;81.23
77100;SHT31;66602;48.922;2.414;2023-08-17T00:24:30;19.84;81.04
77100;SHT31;66602;48.922;2.414;2023-08-17T00:26:55;19.91;81.13
77100;SHT31;66602;48.922;2.414;2023-08-17T00:29:21;19.91;81.00
77100;SHT31;66602;48.922;2.414;2023-08-17T00:31:47;19.89;80.96
77100;SHT31;66602;48.922;2.414;2023-08-17T00:34:12;19.84;81.21
77100;SHT31;66602;48.922;2.414;2023-08-17T00:36:38;19.81;81.34
77100;SHT31;66602;48.922;2.414;2023-08-17T00:39:03;19.79;81.36
77100;SHT31;66602;48.922;2.414;2023-08-17T00:41:29;19.78;81.58
77100;SHT31;66602;48.922;2.414;2023-08-17T00:43:56;19.75;81.71
77100;SHT31;66602;48.922;2.414;2023-08-17T00:46:21;19.67;81.72
77100;SHT31;66602;48.922;2.414;2023-08-17T00:48:48;19.63;82.12
77100;SHT31;66602;48.922;2.414;2023-08-17T00:51:14;19.51;82.25
77100;SHT31;66602;48.922;2.414;2023-08-17T00:53:40;19.49;82.10
77100;SHT31;66602;48.922;2.414;2023-08-17T00:56:07;19.40;82.09
77100;SHT31;66602;48.922;2.414;2023-08-17T00:58:32;19.33;82.46
77100;SHT31;66602;48.922;2.414;2023-08-17T01:00:58;19.23;82.87
77100;SHT31;66602;48.922;2.414;2023-08-17T01:03:24;19.19;83.27
77100;SHT31;66602;48.922;2.414;2023-08-17T01:05:51;19.12;83.49
77100;SHT31;66602;48.922;2.414;2023-08-17T01:08:17;19.07;83.70
77100;SHT31;66602;48.922;2.414;2023-08-17T01:13:25;19.05;83.94
77100;SHT31;66602;48.922;2.414;2023-08-17T01:15:56;18.96;84.11
77100;SHT31;66602;48.922;2.414;2023-08-17T01:18:27;18.86;84.18
77100;SHT31;66602;48.922;2.414;2023-08-17T01:20:54;18.78;84.96
77100;SHT31;66602;48.922;2.414;2023-08-17T01:23:20;18.69;85.22
77100;SHT31;66602;48.922;2.414;2023-08-17T01:25:46;18.61;85.73
77100;SHT31;66602;48.922;2.414;2023-08-17T01:28:11;18.59;85.87
77100;SHT31;66602;48.922;2.414;2023-08-17T01:30:53;18.54;86.24
77100;SHT31;66602;48.922;2.414;2023-08-17T01:33:26;18.47;86.36
77100;SHT31;66602;48.922;2.414;2023-08-17T01:36:11;18.43;86.59
77100;SHT31;66602;48.922;2.414;2023-08-17T01:38:40;18.40;86.69
77100;SHT31;66602;48.922;2.414;2023-08-17T01:41:07;18.37;86.93
77100;SHT31;66602;48.922;2.414;2023-08-17T01:43:39;18.37;87.25
77100;SHT31;66602;48.922;2.414;2023-08-17T01:46:07;18.43;86.92
77100;SHT31;66602;48.922;2.414;2023-08-17T01:48:32;18.37;87.10
77100;SHT31;66602;48.922;2.414;2023-08-17T01:50:58;18.34;87.14
77100;SHT31;66602;48.922;2.414;2023-08-17T01:53:23;18.30;87.49
77100;SHT31;66602;48.922;2.414;2023-08-17T01:55:49;18.28;87.50
77100;SHT31;66602;48.922;2.414;2023-08-17T01:58:14;18.16;87.80
77100;SHT31;66602;48.922;2.414;2023-08-17T02:00:40;18.14;88.14
77100;SHT31;66602;48.922;2.414;2023-08-17T02:03:05;18.10;88.36
77100;SHT31;66602;48.922;2.414;2023-08-17T02:05:31;18.07;88.41
77100;SHT31;66602;48.922;2.414;2023-08-17T02:07:56;18.06;88.52
77100;SHT31;66602;48.922;2.414;2023-08-17T02:10:22;18.00;88.60
77100;SHT31;66602;48.922;2.414;2023-08-17T02:12:47;17.97;88.90
77100;SHT31;66602;48.922;2.414;2023-08-17T02:15:13;17.93;89.14
77100;SHT31;66602;48.922;2.414;2023-08-17T02:17:38;17.89;89.25
77100;SHT31;66602;48.922;2.414;2023-08-17T02:20:04;17.89;89.67
77100;SHT31;66602;48.922;2.414;2023-08-17T02:22:30;17.89;89.47
77100;SHT31;66602;48.922;2.414;2023-08-17T02:24:55;17.83;89.60
77100;SHT31;66602;48.922;2.414;2023-08-17T02:27:21;17.79;90.12
77100;SHT31;66602;48.922;2.414;2023-08-17T02:29:46;17.82;90.34
77100;SHT31;66602;48.922;2.414;2023-08-17T02:32:12;17.93;90.31
77100;SHT31;66602;48.922;2.414;2023-08-17T02:34:37;18.08;89.80
77100;SHT31;66602;48.922;2.414;2023-08-17T02:37:03;18.26;88.86
77100;SHT31;66602;48.922;2.414;2023-08-17T02:39:28;18.47;88.26
77100;SHT31;66602;48.922;2.414;2023-08-17T02:41:54;18.58;87.83
77100;SHT31;66602;48.922;2.414;2023-08-17T02:44:20;18.66;87.27
77100;SHT31;66602;48.922;2.414;2023-08-17T02:46:46;18.76;86.84
77100;SHT31;66602;48.922;2.414;2023-08-17T02:49:11;18.81;86.56
77100;SHT31;66602;48.922;2.414;2023-08-17T02:51:37;18.84;86.33
77100;SHT31;66602;48.922;2.414;2023-08-17T02:54:02;18.85;86.08
77100;SHT31;66602;48.922;2.414;2023-08-17T02:56:28;18.85;86.30
77100;SHT31;66602;48.922;2.414;2023-08-17T02:58:53;18.86;86.01
77100;SHT31;66602;48.922;2.414;2023-08-17T03:01:19;18.84;86.38
77100;SHT31;66602;48.922;2.414;2023-08-17T03:03:44;18.79;86.29
77100;SHT31;66602;48.922;2.414;2023-08-17T03:06:10;18.79;86.31
77100;SHT31;66602;48.922;2.414;2023-08-17T03:08:35;18.75;86.48
77100;SHT31;66602;48.922;2.414;2023-08-17T03:11:01;18.68;86.67
77100;SHT31;66602;48.922;2.414;2023-08-17T03:13:26;18.64;87.15
77100;SHT31;66602;48.922;2.414;2023-08-17T03:15:51;18.57;87.03
77100;SHT31;66602;48.922;2.414;2023-08-17T03:18:17;18.51;87.11
77100;SHT31;66602;48.922;2.414;2023-08-17T03:20:44;18.44;87.62
77100;SHT31;66602;48.922;2.414;2023-08-17T03:23:10;18.38;87.67
77100;SHT31;66602;48.922;2.414;2023-08-17T03:25:36;18.38;87.89
77100;SHT31;66602;48.922;2.414;2023-08-17T03:28:01;18.40;87.85
77100;SHT31;66602;48.922;2.414;2023-08-17T03:30:27;18.34;88.00
77100;SHT31;66602;48.922;2.414;2023-08-17T03:32:52;18.26;88.21
77100;SHT31;66602;48.922;2.414;2023-08-17T03:35:18;18.16;88.42
77100;SHT31;66602;48.922;2.414;2023-08-17T03:37:43;18.08;89.01
77100;SHT31;66602;48.922;2.414;2023-08-17T03:40:10;18.00;89.26
77100;SHT31;66602;48.922;2.414;2023-08-17T03:42:36;17.93;89.68
77100;SHT31;66602;48.922;2.414;2023-08-17T03:45:02;17.86;89.71
77100;SHT31;66602;48.922;2.414;2023-08-17T03:47:28;17.82;90.06
77100;SHT31;66602;48.922;2.414;2023-08-17T03:49:53;17.75;90.37
77100;SHT31;66602;48.922;2.414;2023-08-17T03:52:19;17.68;90.51
77100;SHT31;66602;48.922;2.414;2023-08-17T03:54:45;17.58;90.72
77100;SHT31;66602;48.922;2.414;2023-08-17T03:57:12;17.53;91.14
77100;SHT31;66602;48.922;2.414;2023-08-17T03:59:37;17.46;91.28
77100;SHT31;66602;48.922;2.414;2023-08-17T04:02:03;17.43;91.60
77100;SHT31;66602;48.922;2.414;2023-08-17T04:04:28;17.43;91.89
77100;SHT31;66602;48.922;2.414;2023-08-17T04:06:54;17.39;91.66
77100;SHT31;66602;48.922;2.414;2023-08-17T04:09:20;17.32;92.10
77100;SHT31;66602;48.922;2.414;2023-08-17T04:11:45;17.34;92.23
77100;SHT31;66602;48.922;2.414;2023-08-17T04:14:11;17.34;92.22
77100;SHT31;66602;48.922;2.414;2023-08-17T04:16:37;17.34;92.08
77100;SHT31;66602;48.922;2.414;2023-08-17T04:19:03;17.22;92.12
77100;SHT31;66602;48.922;2.414;2023-08-17T04:21:28;17.15;92.22
77100;SHT31;66602;48.922;2.414;2023-08-17T04:23:54;17.15;92.84
77100;SHT31;66602;48.922;2.414;2023-08-17T04:26:19;17.11;92.71
77100;SHT31;66602;48.922;2.414;2023-08-17T04:28:45;17.08;92.92
77100;SHT31;66602;48.922;2.414;2023-08-17T04:31:11;17.01;92.86
77100;SHT31;66602;48.922;2.414;2023-08-17T04:33:37;17.03;93.38
77100;SHT31;66602;48.922;2.414;2023-08-17T04:36:02;17.04;93.38
77100;SHT31;66602;48.922;2.414;2023-08-17T04:38:28;17.03;93.53
77100;SHT31;66602;48.922;2.414;2023-08-17T04:40:53;17.04;93.50
77100;SHT31;66602;48.922;2.414;2023-08-17T04:43:19;17.06;93.54
77100;SHT31;66602;48.922;2.414;2023-08-17T04:45:44;17.10;93.64
77100;SHT31;66602;48.922;2.414;2023-08-17T04:48:13;17.10;93.34
77100;SHT31;66602;48.922;2.414;2023-08-17T04:50:39;17.07;93.59
77100;SHT31;66602;48.922;2.414;2023-08-17T04:53:04;17.08;93.47
77100;SHT31;66602;48.922;2.414;2023-08-17T04:55:30;17.04;93.26
77100;SHT31;66602;48.922;2.414;2023-08-17T04:57:57;17.04;93.41
77100;SHT31;66602;48.922;2.414;2023-08-17T05:00:23;17.01;93.39
77100;SHT31;66602;48.922;2.414;2023-08-17T05:02:53;16.95;93.49
77100;SHT31;66602;48.922;2.414;2023-08-17T05:05:19;16.92;93.51
77100;SHT31;66602;48.922;2.414;2023-08-17T05:07:45;16.87;93.53
77100;SHT31;66602;48.922;2.414;2023-08-17T05:10:10;16.88;93.84
77100;SHT31;66602;48.922;2.414;2023-08-17T05:12:36;16.88;93.83
77100;SHT31;66602;48.922;2.414;2023-08-17T05:15:01;16.90;93.77
77100;SHT31;66602;48.922;2.414;2023-08-17T05:17:27;16.91;93.79
77100;SHT31;66602;48.922;2.414;2023-08-17T05:19:52;16.97;93.75
77100;SHT31;66602;48.922;2.414;2023-08-17T05:22:18;17.01;93.81
77100;SHT31;66602;48.922;2.414;2023-08-17T05:24:43;17.08;93.82
77100;SHT31;66602;48.922;2.414;2023-08-17T05:27:09;17.14;93.85
77100;SHT31;66602;48.922;2.414;2023-08-17T05:29:35;17.19;93.66
77100;SHT31;66602;48.922;2.414;2023-08-17T05:32:01;17.25;93.73
77100;SHT31;66602;48.922;2.414;2023-08-17T05:34:26;17.31;93.43
77100;SHT31;66602;48.922;2.414;2023-08-17T05:36:51;17.38;93.08
77100;SHT31;66602;48.922;2.414;2023-08-17T05:39:17;17.40;92.75
77100;SHT31;66602;48.922;2.414;2023-08-17T05:41:43;17.45;92.70
77100;SHT31;66602;48.922;2.414;2023-08-17T05:44:08;17.52;92.59
77100;SHT31;66602;48.922;2.414;2023-08-17T05:46:35;17.58;92.40
77100;SHT31;66602;48.922;2.414;2023-08-17T05:49:01;17.63;92.19
77100;SHT31;66602;48.922;2.414;2023-08-17T05:51:26;17.69;91.85
77100;SHT31;66602;48.922;2.414;2023-08-17T05:53:52;17.76;91.57
77100;SHT31;66602;48.922;2.414;2023-08-17T05:56:17;17.79;91.46
77100;SHT31;66602;48.922;2.414;2023-08-17T05:58:43;17.83;91.47
77100;SHT31;66602;48.922;2.414;2023-08-17T06:01:10;17.83;91.17
77100;SHT31;66602;48.922;2.414;2023-08-17T06:03:37;17.87;91.04
77100;SHT31;66602;48.922;2.414;2023-08-17T06:06:03;17.93;91.02
77100;SHT31;66602;48.922;2.414;2023-08-17T06:08:29;17.96;90.87
77100;SHT31;66602;48.922;2.414;2023-08-17T06:10:55;18.01;90.57
77100;SHT31;66602;48.922;2.414;2023-08-17T06:13:21;18.04;90.38
77100;SHT31;66602;48.922;2.414;2023-08-17T06:15:46;18.08;90.17
77100;SHT31;66602;48.922;2.414;2023-08-17T06:18:12;18.16;90.13
77100;SHT31;66602;48.922;2.414;2023-08-17T06:20:37;18.21;90.20
77100;SHT31;66602;48.922;2.414;2023-08-17T06:23:03;18.27;89.78
77100;SHT31;66602;48.922;2.414;2023-08-17T06:25:28;18.40;89.77
77100;SHT31;66602;48.922;2.414;2023-08-17T06:27:54;18.49;89.38
77100;SHT31;66602;48.922;2.414;2023-08-17T06:30:19;18.57;88.93
77100;SHT31;66602;48.922;2.414;2023-08-17T06:32:45;18.62;87.99
77100;SHT31;66602;48.922;2.414;2023-08-17T06:35:10;18.65;87.97
77100;SHT31;66602;48.922;2.414;2023-08-17T06:37:36;18.76;88.03
77100;SHT31;66602;48.922;2.414;2023-08-17T06:40:05;18.84;87.57
77100;SHT31;66602;48.922;2.414;2023-08-17T06:42:31;18.92;87.30
77100;SHT31;66602;48.922;2.414;2023-08-17T06:44:57;18.95;87.31
77100;SHT31;66602;48.922;2.414;2023-08-17T06:47:22;19.06;87.10
77100;SHT31;66602;48.922;2.414;2023-08-17T06:49:48;19.15;87.09
77100;SHT31;66602;48.922;2.414;2023-08-17T06:52:13;19.24;86.69
77100;SHT31;66602;48.922;2.414;2023-08-17T06:54:39;19.33;86.73
77100;SHT31;66602;48.922;2.414;2023-08-17T06:57:05;19.38;86.37
77100;SHT31;66602;48.922;2.414;2023-08-17T06:59:30;19.57;86.21
77100;SHT31;66602;48.922;2.414;2023-08-17T07:01:58;19.85;85.99
77100;SHT31;66602;48.922;2.414;2023-08-17T07:04:24;20.09;84.16
77100;SHT31;66602;48.922;2.414;2023-08-17T07:06:49;20.29;82.66
77100;SHT31;66602;48.922;2.414;2023-08-17T07:09:15;20.69;82.23
77100;SHT31;66602;48.922;2.414;2023-08-17T07:11:40;21.85;78.27
77100;SHT31;66602;48.922;2.414;2023-08-17T07:14:06;23.71;71.56
77100;SHT31;66602;48.922;2.414;2023-08-17T07:16:32;25.42;65.90
77100;SHT31;66602;48.922;2.414;2023-08-17T07:18:57;26.32;62.40
77100;SHT31;66602;48.922;2.414;2023-08-17T07:21:23;27.25;59.39
77100;SHT31;66602;48.922;2.414;2023-08-17T07:23:50;27.98;57.94
77100;SHT31;66602;48.922;2.414;2023-08-17T07:26:16;28.65;56.44
77100;SHT31;66602;48.922;2.414;2023-08-17T07:28:43;28.93;54.44
77100;SHT31;66602;48.922;2.414;2023-08-17T07:31:09;29.24;54.91
77100;SHT31;66602;48.922;2.414;2023-08-17T07:33:34;29.75;52.50
77100;SHT31;66602;48.922;2.414;2023-08-17T07:36:00;29.92;52.53
77100;SHT31;66602;48.922;2.414;2023-08-17T07:38:25;30.25;51.46
77100;SHT31;66602;48.922;2.414;2023-08-17T07:40:51;30.49;51.98
77100;SHT31;66602;48.922;2.414;2023-08-17T07:43:17;30.88;50.65
77100;SHT31;66602;48.922;2.414;2023-08-17T07:45:42;31.01;49.39
77100;SHT31;66602;48.922;2.414;2023-08-17T07:48:07;30.93;49.76
77100;SHT31;66602;48.922;2.414;2023-08-17T07:50:33;31.02;49.71
77100;SHT31;66602;48.922;2.414;2023-08-17T07:52:59;31.25;49.25
77100;SHT31;66602;48.922;2.414;2023-08-17T07:55:26;31.55;48.32
77100;SHT31;66602;48.922;2.414;2023-08-17T07:57:51;31.80;49.43
77100;SHT31;66602;48.922;2.414;2023-08-17T08:00:17;32.02;48.05
77100;SHT31;66602;48.922;2.414;2023-08-17T08:02:42;32.41;47.18
77100;SHT31;66602;48.922;2.414;2023-08-17T08:05:08;32.45;46.74
77100;SHT31;66602;48.922;2.414;2023-08-17T08:07:33;32.50;45.72
77100;SHT31;66602;48.922;2.414;2023-08-17T08:09:59;32.53;46.56
77100;SHT31;66602;48.922;2.414;2023-08-17T08:12:24;32.78;46.31
77100;SHT31;66602;48.922;2.414;2023-08-17T08:14:50;33.04;45.09
77100;SHT31;66602;48.922;2.414;2023-08-17T08:17:16;33.25;45.83
77100;SHT31;66602;48.922;2.414;2023-08-17T08:19:42;33.33;44.66
77100;SHT31;66602;48.922;2.414;2023-08-17T08:22:07;33.92;43.36
77100;SHT31;66602;48.922;2.414;2023-08-17T08:24:32;33.62;43.34
77100;SHT31;66602;48.922;2.414;2023-08-17T08:26:59;33.90;43.65
77100;SHT31;66602;48.922;2.414;2023-08-17T08:29:25;33.86;43.73
77100;SHT31;66602;48.922;2.414;2023-08-17T08:31:51;33.70;44.91
77100;SHT31;66602;48.922;2.414;2023-08-17T08:34:16;33.67;44.58
77100;SHT31;66602;48.922;2.414;2023-08-17T08:36:42;33.74;44.42
77100;SHT31;66602;48.922;2.414;2023-08-17T08:39:07;33.93;43.32
77100;SHT31;66602;48.922;2.414;2023-08-17T08:41:33;34.58;43.44
77100;SHT31;66602;48.922;2.414;2023-08-17T08:43:58;34.66;43.01
77100;SHT31;66602;48.922;2.414;2023-08-17T08:46:26;34.89;42.45
77100;SHT31;66602;48.922;2.414;2023-08-17T08:48:55;35.13;41.06
77100;SHT31;66602;48.922;2.414;2023-08-17T08:51:26;34.64;43.14
77100;SHT31;66602;48.922;2.414;2023-08-17T08:54:00;35.16;40.80
77100;SHT31;66602;48.922;2.414;2023-08-17T08:56:29;35.34;41.71
77100;SHT31;66602;48.922;2.414;2023-08-17T08:58:59;35.33;40.34
77100;SHT31;66602;48.922;2.414;2023-08-17T09:01:26;34.88;42.30
77100;SHT31;66602;48.922;2.414;2023-08-17T09:03:52;35.10;42.04
77100;SHT31;66602;48.922;2.414;2023-08-17T09:06:19;35.30;40.73
77100;SHT31;66602;48.922;2.414;2023-08-17T09:08:47;35.07;40.66
77100;SHT31;66602;48.922;2.414;2023-08-17T09:11:14;35.39;40.56
77100;SHT31;66602;48.922;2.414;2023-08-17T09:13:39;35.69;40.18
77100;SHT31;66602;48.922;2.414;2023-08-17T09:16:05;34.98;41.82
77100;SHT31;66602;48.922;2.414;2023-08-17T09:18:31;35.54;40.85
77100;SHT31;66602;48.922;2.414;2023-08-17T09:20:56;35.81;40.88
77100;SHT31;66602;48.922;2.414;2023-08-17T09:23:22;36.11;40.46
77100;SHT31;66602;48.922;2.414;2023-08-17T09:25:49;36.24;39.57
77100;SHT31;66602;48.922;2.414;2023-08-17T09:28:18;36.28;38.95
77100;SHT31;66602;48.922;2.414;2023-08-17T09:30:55;36.29;39.22
77100;SHT31;66602;48.922;2.414;2023-08-17T09:33:29;36.86;39.51
77100;SHT31;66602;48.922;2.414;2023-08-17T09:35:56;37.16;37.35
77100;SHT31;66602;48.922;2.414;2023-08-17T09:38:22;36.80;38.56
77100;SHT31;66602;48.922;2.414;2023-08-17T09:40:48;36.90;40.76
77100;SHT31;66602;48.922;2.414;2023-08-17T09:43:15;36.28;39.87
77100;SHT31;66602;48.922;2.414;2023-08-17T09:45:41;36.52;39.05
77100;SHT31;66602;48.922;2.414;2023-08-17T09:48:09;36.94;37.55
77100;SHT31;66602;48.922;2.414;2023-08-17T09:50:35;37.14;37.77
77100;SHT31;66602;48.922;2.414;2023-08-17T09:53:02;35.85;39.96
77100;SHT31;66602;48.922;2.414;2023-08-17T09:55:30;36.19;39.04
77100;SHT31;66602;48.922;2.414;2023-08-17T09:57:57;36.36;38.54
77100;SHT31;66602;48.922;2.414;2023-08-17T10:00:23;36.27;38.35
77100;SHT31;66602;48.922;2.414;2023-08-17T10:02:50;36.60;37.22
77100;SHT31;66602;48.922;2.414;2023-08-17T10:05:18;37.34;36.42
77100;SHT31;66602;48.922;2.414;2023-08-17T10:07:46;37.65;37.88
77100;SHT31;66602;48.922;2.414;2023-08-17T10:10:18;37.71;36.06
77100;SHT31;66602;48.922;2.414;2023-08-17T10:12:50;37.57;35.85
77100;SHT31;66602;48.922;2.414;2023-08-17T10:15:19;37.44;36.02
77100;SHT31;66602;48.922;2.414;2023-08-17T10:17:57;37.48;35.85
77100;SHT31;66602;48.922;2.414;2023-08-17T10:20:26;37.76;36.41
77100;SHT31;66602;48.922;2.414;2023-08-17T10:23:09;37.74;35.89
77100;SHT31;66602;48.922;2.414;2023-08-17T10:25:36;37.69;35.80
77100;SHT31;66602;48.922;2.414;2023-08-17T10:28:03;38.11;35.29
77100;SHT31;66602;48.922;2.414;2023-08-17T10:30:29;38.23;35.28
77100;SHT31;66602;48.922;2.414;2023-08-17T10:32:55;38.36;35.59
77100;SHT31;66602;48.922;2.414;2023-08-17T10:35:21;38.02;34.98
77100;SHT31;66602;48.922;2.414;2023-08-17T10:37:47;37.82;34.98
77100;SHT31;66602;48.922;2.414;2023-08-17T10:40:13;37.92;35.21
77100;SHT31;66602;48.922;2.414;2023-08-17T10:42:38;37.98;34.98
77100;SHT31;66602;48.922;2.414;2023-08-17T10:45:26;38.01;35.48
77100;SHT31;66602;48.922;2.414;2023-08-17T10:48:25;38.17;35.09
77100;SHT31;66602;48.922;2.414;2023-08-17T10:51:10;37.98;34.47
77100;SHT31;66602;48.922;2.414;2023-08-17T10:53:38;37.55;35.90
77100;SHT31;66602;48.922;2.414;2023-08-17T10:56:11;37.68;34.92
77100;SHT31;66602;48.922;2.414;2023-08-17T10:58:38;37.89;34.75
77100;SHT31;66602;48.922;2.414;2023-08-17T11:01:03;37.93;34.04
77100;SHT31;66602;48.922;2.414;2023-08-17T11:03:29;37.65;33.44
77100;SHT31;66602;48.922;2.414;2023-08-17T11:05:55;37.86;34.52
77100;SHT31;66602;48.922;2.414;2023-08-17T11:08:37;38.37;33.73
77100;SHT31;66602;48.922;2.414;2023-08-17T11:11:10;38.62;32.40
77100;SHT31;66602;48.922;2.414;2023-08-17T11:13:45;38.29;31.70
77100;SHT31;66602;48.922;2.414;2023-08-17T11:16:12;38.67;32.96
77100;SHT31;66602;48.922;2.414;2023-08-17T11:18:38;38.81;31.86
77100;SHT31;66602;48.922;2.414;2023-08-17T11:21:07;38.75;32.85
77100;SHT31;66602;48.922;2.414;2023-08-17T11:23:34;38.49;31.51
77100;SHT31;66602;48.922;2.414;2023-08-17T11:26:00;38.33;31.69
77100;SHT31;66602;48.922;2.414;2023-08-17T11:28:26;38.50;31.10
77100;SHT31;66602;48.922;2.414;2023-08-17T11:31:00;38.67;30.97
77100;SHT31;66602;48.922;2.414;2023-08-17T11:33:26;38.62;29.02
77100;SHT31;66602;48.922;2.414;2023-08-17T11:35:57;38.54;31.51
77100;SHT31;66602;48.922;2.414;2023-08-17T11:38:23;38.27;30.92
77100;SHT31;66602;48.922;2.414;2023-08-17T11:40:52;38.32;31.32
77100;SHT31;66602;48.922;2.414;2023-08-17T11:43:18;38.29;30.81
77100;SHT31;66602;48.922;2.414;2023-08-17T11:45:44;38.52;31.48
77100;SHT31;66602;48.922;2.414;2023-08-17T11:48:09;38.47;31.24
77100;SHT31;66602;48.922;2.414;2023-08-17T11:50:35;38.39;33.39
77100;SHT31;66602;48.922;2.414;2023-08-17T11:53:00;37.95;34.36
77100;SHT31;66602;48.922;2.414;2023-08-17T11:55:26;38.26;32.30
77100;SHT31;66602;48.922;2.414;2023-08-17T11:57:52;38.17;30.96
77100;SHT31;66602;48.922;2.414;2023-08-17T12:00:20;38.54;31.91
77100;SHT31;66602;48.922;2.414;2023-08-17T12:02:50;38.27;30.71
77100;SHT31;66602;48.922;2.414;2023-08-17T12:05:23;37.68;34.51
77100;SHT31;66602;48.922;2.414;2023-08-17T12:07:54;37.71;33.75
77100;SHT31;66602;48.922;2.414;2023-08-17T12:10:20;37.67;33.10
77100;SHT31;66602;48.922;2.414;2023-08-17T12:12:48;38.08;31.46
77100;SHT31;66602;48.922;2.414;2023-08-17T12:15:16;37.89;33.69
77100;SHT31;66602;48.922;2.414;2023-08-17T12:17:48;37.39;31.80
77100;SHT31;66602;48.922;2.414;2023-08-17T12:20:19;37.69;31.48
77100;SHT31;66602;48.922;2.414;2023-08-17T12:22:46;38.06;31.11
77100;SHT31;66602;48.922;2.414;2023-08-17T12:25:12;38.27;32.45
77100;SHT31;66602;48.922;2.414;2023-08-17T12:27:37;38.35;30.85
77100;SHT31;66602;48.922;2.414;2023-08-17T12:30:03;38.50;31.70
77100;SHT31;66602;48.922;2.414;2023-08-17T12:32:29;38.66;32.94
77100;SHT31;66602;48.922;2.414;2023-08-17T12:34:54;38.56;33.79
77100;SHT31;66602;48.922;2.414;2023-08-17T12:37:20;38.27;31.49
77100;SHT31;66602;48.922;2.414;2023-08-17T12:39:47;38.17;31.37
77100;SHT31;66602;48.922;2.414;2023-08-17T12:42:13;37.98;32.83
77100;SHT31;66602;48.922;2.414;2023-08-17T12:44:39;37.57;35.83
77100;SHT31;66602;48.922;2.414;2023-08-17T12:47:05;37.75;33.82
77100;SHT31;66602;48.922;2.414;2023-08-17T12:49:30;38.05;32.76
77100;SHT31;66602;48.922;2.414;2023-08-17T12:51:56;37.88;32.65
77100;SHT31;66602;48.922;2.414;2023-08-17T12:54:21;37.23;32.85
77100;SHT31;66602;48.922;2.414;2023-08-17T12:56:47;36.83;32.79
77100;SHT31;66602;48.922;2.414;2023-08-17T12:59:12;36.91;34.55
77100;SHT31;66602;48.922;2.414;2023-08-17T13:01:38;37.18;33.75
77100;SHT31;66602;48.922;2.414;2023-08-17T13:04:04;37.41;34.14
77100;SHT31;66602;48.922;2.414;2023-08-17T13:06:30;37.18;34.04
77100;SHT31;66602;48.922;2.414;2023-08-17T13:08:55;36.93;32.97
77100;SHT31;66602;48.922;2.414;2023-08-17T13:11:21;36.84;34.48
77100;SHT31;66602;48.922;2.414;2023-08-17T13:13:46;37.20;34.09
77100;SHT31;66602;48.922;2.414;2023-08-17T13:16:12;37.68;32.98
77100;SHT31;66602;48.922;2.414;2023-08-17T13:18:38;38.23;32.52
77100;SHT31;66602;48.922;2.414;2023-08-17T13:21:03;38.60;33.27
77100;SHT31;66602;48.922;2.414;2023-08-17T13:23:29;38.08;32.03
77100;SHT31;66602;48.922;2.414;2023-08-17T13:25:55;37.64;31.52
77100;SHT31;66602;48.922;2.414;2023-08-17T13:28:20;37.37;33.85
77100;SHT31;66602;48.922;2.414;2023-08-17T13:30:45;37.21;32.82
77100;SHT31;66602;48.922;2.414;2023-08-17T13:33:12;36.96;33.58
77100;SHT31;66602;48.922;2.414;2023-08-17T13:35:38;37.30;32.99
77100;SHT31;66602;48.922;2.414;2023-08-17T13:38:03;37.53;33.30
77100;SHT31;66602;48.922;2.414;2023-08-17T13:40:30;37.67;34.34
77100;SHT31;66602;48.922;2.414;2023-08-17T13:42:55;37.58;32.94
77100;SHT31;66602;48.922;2.414;2023-08-17T13:45:21;36.99;33.69
77100;SHT31;66602;48.922;2.414;2023-08-17T13:47:47;36.78;34.08
77100;SHT31;66602;48.922;2.414;2023-08-17T13:50:12;37.07;37.08
77100;SHT31;66602;48.922;2.414;2023-08-17T13:52:37;36.48;34.37
77100;SHT31;66602;48.922;2.414;2023-08-17T13:55:03;36.22;34.52
77100;SHT31;66602;48.922;2.414;2023-08-17T13:57:29;36.11;34.81
77100;SHT31;66602;48.922;2.414;2023-08-17T13:59:54;36.27;36.18
77100;SHT31;66602;48.922;2.414;2023-08-17T14:02:20;36.62;34.97
77100;SHT31;66602;48.922;2.414;2023-08-17T14:04:45;37.16;32.69
77100;SHT31;66602;48.922;2.414;2023-08-17T14:07:11;36.84;33.91
77100;SHT31;66602;48.922;2.414;2023-08-17T14:09:36;36.53;35.83
77100;SHT31;66602;48.922;2.414;2023-08-17T14:12:02;36.40;34.58
77100;SHT31;66602;48.922;2.414;2023-08-17T14:14:30;36.69;35.25
77100;SHT31;66602;48.922;2.414;2023-08-17T14:16:55;37.28;33.68
77100;SHT31;66602;48.922;2.414;2023-08-17T14:19:22;37.08;33.29
77100;SHT31;66602;48.922;2.414;2023-08-17T14:21:48;36.73;34.31
77100;SHT31;66602;48.922;2.414;2023-08-17T14:24:13;36.46;34.84
77100;SHT31;66602;48.922;2.414;2023-08-17T14:26:39;36.39;36.55
77100;SHT31;66602;48.922;2.414;2023-08-17T14:29:05;36.21;36.32
77100;SHT31;66602;48.922;2.414;2023-08-17T14:31:30;36.31;35.64
77100;SHT31;66602;48.922;2.414;2023-08-17T14:33:56;36.39;35.49
77100;SHT31;66602;48.922;2.414;2023-08-17T14:36:22;36.38;35.53
77100;SHT31;66602;48.922;2.414;2023-08-17T14:38:47;36.21;36.44
77100;SHT31;66602;48.922;2.414;2023-08-17T14:41:13;35.92;36.65
77100;SHT31;66602;48.922;2.414;2023-08-17T14:43:38;35.84;36.07
77100;SHT31;66602;48.922;2.414;2023-08-17T14:46:04;36.09;35.47
77100;SHT31;66602;48.922;2.414;2023-08-17T14:48:29;35.88;35.98
77100;SHT31;66602;48.922;2.414;2023-08-17T14:50:55;35.77;37.10
77100;SHT31;66602;48.922;2.414;2023-08-17T14:53:21;35.76;38.02
77100;SHT31;66602;48.922;2.414;2023-08-17T14:55:46;36.18;36.77
77100;SHT31;66602;48.922;2.414;2023-08-17T14:58:12;36.22;35.51
77100;SHT31;66602;48.922;2.414;2023-08-17T15:00:39;36.05;36.66
77100;SHT31;66602;48.922;2.414;2023-08-17T15:03:04;36.01;36.99
77100;SHT31;66602;48.922;2.414;2023-08-17T15:05:30;35.97;36.52
77100;SHT31;66602;48.922;2.414;2023-08-17T15:07:56;35.91;36.36
77100;SHT31;66602;48.922;2.414;2023-08-17T15:10:22;35.82;38.04
77100;SHT31;66602;48.922;2.414;2023-08-17T15:12:47;35.90;36.55
77100;SHT31;66602;48.922;2.414;2023-08-17T15:15:14;35.90;36.97
77100;SHT31;66602;48.922;2.414;2023-08-17T15:17:39;35.94;36.57
77100;SHT31;66602;48.922;2.414;2023-08-17T15:20:06;35.69;36.19
77100;SHT31;66602;48.922;2.414;2023-08-17T15:22:31;34.69;37.51
77100;SHT31;66602;48.922;2.414;2023-08-17T15:24:57;33.46;40.89
77100;SHT31;66602;48.922;2.414;2023-08-17T15:27:22;33.77;40.17